createdAt,value
2017-06-17T00:00:12.115Z,99.29
2017-06-17T00:00:24.549Z,99
2017-06-17T00:00:36.983Z,99.29
2017-06-17T00:00:49.975Z,99.76
2017-06-17T00:01:03.535Z,99.76
2017-06-17T00:01:16.984Z,99.86
2017-06-17T00:01:30.412Z,99.86
2017-06-17T00:01:43.416Z,99.86
2017-06-17T00:01:56.405Z,99.76
2017-06-17T00:02:09.329Z,99.76
2017-06-17T00:02:22.770Z,99.86
2017-06-17T00:02:36.268Z,99.76
2017-06-17T00:02:49.782Z,99.96
2017-06-17T00:03:03.263Z,99.67
2017-06-17T00:03:16.749Z,99.71
2017-06-17T00:03:30.228Z,99.81
2017-06-17T00:03:43.167Z,99.81
2017-06-17T00:03:56.088Z,99.86
2017-06-17T00:04:08.989Z,99.71
2017-06-17T00:04:23.509Z,99.81
2017-06-17T00:04:35.996Z,99.81
2017-06-17T00:04:49.478Z,99.71
2017-06-17T00:05:03.004Z,99.71
2017-06-17T00:05:15.989Z,99.81
2017-06-17T00:05:28.952Z,99.71
2017-06-17T00:05:42.453Z,99.62
2017-06-17T00:05:55.953Z,99.81
2017-06-17T00:06:08.993Z,99.81
2017-06-17T00:06:22.502Z,99.81
2017-06-17T00:06:35.434Z,99.81
2017-06-17T00:06:48.957Z,99.9
2017-06-17T00:07:01.459Z,99.71
2017-06-17T00:07:13.875Z,99.71
2017-06-17T00:07:26.817Z,99.04
2017-06-17T00:07:40.266Z,99.33
2017-06-17T00:07:53.726Z,99.62
2017-06-17T00:08:07.152Z,99.24
2017-06-17T00:08:20.063Z,98.75
2017-06-17T00:08:33.521Z,98.95
2017-06-17T00:08:47.036Z,99.24
2017-06-17T00:09:00.542Z,98.75
2017-06-17T00:09:13.949Z,99.04
2017-06-17T00:09:27.443Z,98.38
2017-06-17T00:09:40.920Z,98.38
2017-06-17T00:09:53.885Z,98.75
2017-06-17T00:10:07.349Z,98.66
2017-06-17T00:10:20.296Z,98.57
2017-06-17T00:10:33.809Z,98.66
2017-06-17T00:10:47.305Z,98.66
2017-06-17T00:11:00.798Z,98.57
2017-06-17T00:11:14.263Z,98.66
2017-06-17T00:11:27.764Z,98.66
2017-06-17T00:11:40.750Z,98.57
2017-06-17T00:11:54.210Z,98.66
2017-06-17T00:12:07.694Z,98.66
2017-06-17T00:12:20.615Z,98.85
2017-06-17T00:12:34.163Z,98.66
2017-06-17T00:12:47.125Z,98.66
2017-06-17T00:13:00.587Z,98.66
2017-06-17T00:13:13.586Z,98.66
2017-06-17T00:13:27.092Z,98.57
2017-06-17T00:13:40.074Z,98.57
2017-06-17T00:13:53.587Z,98.95
2017-06-17T00:14:06.576Z,98.85
2017-06-17T00:14:19.015Z,98.95
2017-06-17T00:14:32.471Z,98.95
2017-06-17T00:14:45.468Z,99.04
2017-06-17T00:14:58.953Z,98.75
2017-06-17T00:15:12.491Z,98.85
2017-06-17T00:15:25.965Z,98.95
2017-06-17T00:15:39.507Z,98.95
2017-06-17T00:15:52.999Z,98.57
2017-06-17T00:16:05.923Z,99.04
2017-06-17T00:16:19.394Z,98.95
2017-06-17T00:16:32.324Z,98.85
2017-06-17T00:16:45.801Z,98.85
2017-06-17T00:16:58.709Z,98.75
2017-06-17T00:17:12.196Z,98.66
2017-06-17T00:17:25.426Z,98.66
2017-06-17T00:17:38.935Z,98.66
2017-06-17T00:17:51.928Z,98.85
2017-06-17T00:18:04.833Z,98.75
2017-06-17T00:18:17.195Z,98.66
2017-06-17T00:18:30.676Z,98.75
2017-06-17T00:18:43.644Z,98.75
2017-06-17T00:18:56.593Z,98.66
2017-06-17T00:19:10.041Z,98.66
2017-06-17T00:19:25.765Z,98.85
2017-06-17T00:19:39.208Z,98.8
2017-06-17T00:19:52.137Z,98.85
2017-06-17T00:20:05.653Z,98.95
2017-06-17T00:20:19.087Z,98.95
2017-06-17T00:20:32.598Z,98.95
2017-06-17T00:20:46.078Z,98.95
2017-06-17T00:20:59.567Z,98.95
2017-06-17T00:21:13.080Z,98.75
2017-06-17T00:21:26.656Z,98.66
2017-06-17T00:21:39.602Z,98.66
2017-06-17T00:21:52.488Z,98.66
2017-06-17T00:22:06.011Z,99.33
2017-06-17T00:22:19.477Z,98.95
2017-06-17T00:22:32.991Z,98.95
2017-06-17T00:22:45.977Z,98.9
2017-06-17T00:22:59.438Z,98.95
2017-06-17T00:23:12.887Z,99.28
2017-06-17T00:23:26.352Z,98.61
2017-06-17T00:23:39.842Z,98.66
2017-06-17T00:23:53.361Z,98.9
2017-06-17T00:24:06.836Z,98.71
2017-06-17T00:24:21.193Z,98.57
2017-06-17T00:24:33.591Z,98.57
2017-06-17T00:24:47.073Z,98.75
2017-06-17T00:25:00.534Z,98.42
2017-06-17T00:25:14.013Z,98.57
2017-06-17T00:25:26.964Z,98.85
2017-06-17T00:25:40.497Z,98.66
2017-06-17T00:25:53.938Z,98.71
2017-06-17T00:26:06.888Z,98.61
2017-06-17T00:26:20.306Z,98.52
2017-06-17T00:26:33.826Z,98.8
2017-06-17T00:26:47.246Z,98.71
2017-06-17T00:27:00.733Z,98.42
2017-06-17T00:27:14.160Z,98.52
2017-06-17T00:27:26.610Z,98.52
2017-06-17T00:27:40.049Z,98.66
2017-06-17T00:27:52.965Z,98.71
2017-06-17T00:28:05.918Z,98.66
2017-06-17T00:28:19.449Z,98.71
2017-06-17T00:28:31.791Z,98.9
2017-06-17T00:28:45.314Z,98.71
2017-06-17T00:28:58.792Z,98.71
2017-06-17T00:29:12.277Z,98.42
2017-06-17T00:29:25.294Z,98.47
2017-06-17T00:29:38.788Z,97.75
2017-06-17T00:29:52.300Z,97.99
2017-06-17T00:30:05.258Z,97.94
2017-06-17T00:30:18.678Z,97.9
2017-06-17T00:30:32.168Z,98.09
2017-06-17T00:30:45.617Z,97.85
2017-06-17T00:30:58.554Z,97.56
2017-06-17T00:31:12.037Z,97.85
2017-06-17T00:31:25.509Z,97.85
2017-06-17T00:31:37.932Z,98.13
2017-06-17T00:31:51.394Z,97.9
2017-06-17T00:32:04.890Z,97.99
2017-06-17T00:32:17.350Z,97.66
2017-06-17T00:32:30.252Z,98.09
2017-06-17T00:32:43.188Z,98.13
2017-06-17T00:32:56.742Z,97.61
2017-06-17T00:33:10.189Z,97.52
2017-06-17T00:33:23.171Z,97.75
2017-06-17T00:33:36.687Z,97.8
2017-06-17T00:33:50.196Z,97.9
2017-06-17T00:34:02.638Z,97.56
2017-06-17T00:34:15.590Z,97.61
2017-06-17T00:34:29.132Z,97.52
2017-06-17T00:34:45.753Z,98.23
2017-06-17T00:34:59.183Z,98.04
2017-06-17T00:35:12.666Z,98.33
2017-06-17T00:35:26.160Z,98.13
2017-06-17T00:35:39.642Z,97.99
2017-06-17T00:35:53.143Z,98.18
2017-06-17T00:36:06.578Z,97.99
2017-06-17T00:36:19.529Z,98.23
2017-06-17T00:36:32.425Z,98.52
2017-06-17T00:36:45.878Z,98.09
2017-06-17T00:36:59.396Z,97.94
2017-06-17T00:37:12.893Z,98.33
2017-06-17T00:37:26.386Z,98.23
2017-06-17T00:37:41.250Z,98.13
2017-06-17T00:37:54.700Z,98.23
2017-06-17T00:38:07.661Z,98.33
2017-06-17T00:38:20.573Z,98.42
2017-06-17T00:38:33.020Z,98.8
2017-06-17T00:38:46.431Z,98.52
2017-06-17T00:38:59.966Z,98.8
2017-06-17T00:39:13.423Z,98.8
2017-06-17T00:39:26.452Z,98.71
2017-06-17T00:39:40.043Z,98.33
2017-06-17T00:39:53.534Z,98.61
2017-06-17T00:40:06.559Z,98.61
2017-06-17T00:40:19.570Z,98.71
2017-06-17T00:40:32.519Z,98.52
2017-06-17T00:40:45.993Z,98.61
2017-06-17T00:40:59.468Z,98.71
2017-06-17T00:41:13.007Z,98.71
2017-06-17T00:41:26.472Z,98.71
2017-06-17T00:41:39.395Z,98.71
2017-06-17T00:41:52.290Z,98.9
2017-06-17T00:42:05.782Z,98.8
2017-06-17T00:42:18.710Z,98.8
2017-06-17T00:42:32.164Z,98.71
2017-06-17T00:42:45.634Z,98.8
2017-06-17T00:42:59.073Z,98.8
2017-06-17T00:43:12.030Z,98.42
2017-06-17T00:43:25.501Z,98.8
2017-06-17T00:43:38.506Z,98.23
2017-06-17T00:43:51.994Z,98.23
2017-06-17T00:44:04.899Z,98.23
2017-06-17T00:44:17.292Z,98.13
2017-06-17T00:44:30.729Z,98.33
2017-06-17T00:44:44.281Z,98.23
2017-06-17T00:44:57.733Z,98.33
2017-06-17T00:45:10.648Z,98.23
2017-06-17T00:45:23.121Z,98.13
2017-06-17T00:45:36.571Z,98.13
2017-06-17T00:45:49.980Z,98.33
2017-06-17T00:46:03.691Z,98.33
2017-06-17T00:46:17.168Z,98.42
2017-06-17T00:46:30.123Z,98.23
2017-06-17T00:46:43.603Z,98.13
2017-06-17T00:46:56.997Z,98.42
2017-06-17T00:47:09.950Z,98.13
2017-06-17T00:47:23.405Z,98.13
2017-06-17T00:47:36.927Z,98.23
2017-06-17T00:47:50.424Z,98.8
2017-06-17T00:48:03.449Z,98.71
2017-06-17T00:48:16.991Z,98.71
2017-06-17T00:48:30.455Z,98.71
2017-06-17T00:48:43.857Z,98.8
2017-06-17T00:48:56.287Z,98.33
2017-06-17T00:49:09.777Z,98.42
2017-06-17T00:49:23.236Z,98.23
2017-06-17T00:49:36.172Z,98.8
2017-06-17T00:49:52.672Z,98.71
2017-06-17T00:50:05.641Z,98.42
2017-06-17T00:50:19.036Z,98.52
2017-06-17T00:50:32.028Z,98.71
2017-06-17T00:50:44.986Z,98.71
2017-06-17T00:50:58.462Z,98.61
2017-06-17T00:51:11.918Z,98.8
2017-06-17T00:51:24.910Z,98.99
2017-06-17T00:51:38.325Z,98.71
2017-06-17T00:51:51.825Z,98.9
2017-06-17T00:52:05.298Z,98.9
2017-06-17T00:52:18.750Z,98.9
2017-06-17T00:52:31.661Z,98.71
2017-06-17T00:52:45.124Z,98.9
2017-06-17T00:52:58.595Z,98.71
2017-06-17T00:53:11.999Z,98.9
2017-06-17T00:53:24.366Z,98.71
2017-06-17T00:53:37.836Z,98.52
2017-06-17T00:53:51.300Z,98.52
2017-06-17T00:54:04.230Z,98.99
2017-06-17T00:54:17.079Z,98.8
2017-06-17T00:54:30.574Z,98.71
2017-06-17T00:54:44.075Z,98.8
2017-06-17T00:54:57.644Z,98.9
2017-06-17T00:55:10.569Z,98.8
2017-06-17T00:55:23.488Z,98.8
2017-06-17T00:55:36.942Z,98.8
2017-06-17T00:55:50.324Z,98.33
2017-06-17T00:56:03.214Z,98.52
2017-06-17T00:56:16.198Z,98.8
2017-06-17T00:56:29.627Z,98.52
2017-06-17T00:56:43.086Z,98.8
2017-06-17T00:56:56.536Z,98.52
2017-06-17T00:57:09.460Z,98.9
2017-06-17T00:57:22.953Z,98.42
2017-06-17T00:57:36.474Z,98.71
2017-06-17T00:57:49.932Z,98.61
2017-06-17T00:58:02.892Z,98.61
2017-06-17T00:58:15.824Z,98.66
2017-06-17T00:58:28.722Z,99.09
2017-06-17T00:58:42.154Z,98.9
2017-06-17T00:58:55.591Z,99.14
2017-06-17T00:59:09.039Z,98.9
2017-06-17T00:59:22.504Z,99.09
2017-06-17T00:59:36.043Z,99.09
2017-06-17T00:59:49.485Z,99.09
2017-06-17T01:00:02.618Z,99.14
2017-06-17T01:00:15.026Z,98.66
2017-06-17T01:00:27.958Z,98.75
2017-06-17T01:00:40.840Z,98.85
2017-06-17T01:00:54.291Z,98.85
2017-06-17T01:01:06.713Z,98.85
2017-06-17T01:01:20.158Z,98.66
2017-06-17T01:01:33.598Z,99.19
2017-06-17T01:01:47.064Z,98.85
2017-06-17T01:02:00.514Z,98.75
2017-06-17T01:02:13.981Z,99.28
2017-06-17T01:02:27.504Z,99.33
2017-06-17T01:02:40.946Z,99.33
2017-06-17T01:02:54.422Z,99.14
2017-06-17T01:03:07.374Z,99.66
2017-06-17T01:03:20.349Z,99.57
2017-06-17T01:03:33.807Z,99.57
2017-06-17T01:03:46.749Z,99.28
2017-06-17T01:03:59.705Z,99.57
2017-06-17T01:04:12.682Z,99.71
2017-06-17T01:04:26.164Z,99.38
2017-06-17T01:04:39.591Z,99.09
2017-06-17T01:04:52.490Z,99.28
2017-06-17T01:05:06.256Z,98.99
2017-06-17T01:05:19.736Z,98.9
2017-06-17T01:05:32.692Z,98.8
2017-06-17T01:05:46.177Z,98.9
2017-06-17T01:05:59.631Z,98.9
2017-06-17T01:06:12.555Z,98.99
2017-06-17T01:06:25.997Z,99.09
2017-06-17T01:06:38.959Z,99.09
2017-06-17T01:06:52.401Z,99.19
2017-06-17T01:07:05.880Z,98.71
2017-06-17T01:07:19.389Z,98.71
2017-06-17T01:07:32.829Z,98.9
2017-06-17T01:07:46.316Z,98.71
2017-06-17T01:07:59.758Z,98.71
2017-06-17T01:08:12.719Z,98.8
2017-06-17T01:08:25.117Z,98.8
2017-06-17T01:08:38.586Z,98.8
2017-06-17T01:08:51.564Z,98.9
2017-06-17T01:09:05.003Z,98.71
2017-06-17T01:09:17.413Z,98.9
2017-06-17T01:09:29.283Z,98.99
2017-06-17T01:09:42.266Z,98.9
2017-06-17T01:09:55.984Z,98.9
2017-06-17T01:10:09.586Z,98.9
2017-06-17T01:10:22.558Z,98.8
2017-06-17T01:10:36.033Z,98.8
2017-06-17T01:10:49.581Z,98.52
2017-06-17T01:11:02.035Z,99.09
2017-06-17T01:11:15.485Z,98.99
2017-06-17T01:11:28.950Z,98.8
2017-06-17T01:11:41.903Z,98.52
2017-06-17T01:11:55.333Z,98.61
2017-06-17T01:12:08.791Z,98.52
2017-06-17T01:12:23.686Z,98.71
2017-06-17T01:12:37.121Z,98.71
2017-06-17T01:12:50.039Z,98.61
2017-06-17T01:13:03.452Z,98.52
2017-06-17T01:13:16.931Z,98.42
2017-06-17T01:13:29.304Z,98.52
2017-06-17T01:13:42.756Z,98.52
2017-06-17T01:13:55.661Z,98.61
2017-06-17T01:14:09.151Z,98.71
2017-06-17T01:14:22.567Z,98.9
2017-06-17T01:14:36.026Z,98.8
2017-06-17T01:14:49.007Z,98.42
2017-06-17T01:15:02.554Z,98.23
2017-06-17T01:15:16.029Z,98.33
2017-06-17T01:15:29.567Z,98.13
2017-06-17T01:15:41.973Z,98.8
2017-06-17T01:15:55.425Z,98.9
2017-06-17T01:16:08.057Z,98.71
2017-06-17T01:16:21.558Z,98.8
2017-06-17T01:16:35.087Z,98.52
2017-06-17T01:16:48.567Z,98.33
2017-06-17T01:17:02.060Z,98.9
2017-06-17T01:17:15.569Z,98.71
2017-06-17T01:17:29.033Z,98.61
2017-06-17T01:17:42.497Z,98.61
2017-06-17T01:17:55.940Z,98.52
2017-06-17T01:18:08.320Z,98.61
2017-06-17T01:18:21.215Z,98.8
2017-06-17T01:18:34.720Z,98.71
2017-06-17T01:18:47.612Z,98.71
2017-06-17T01:19:01.071Z,98.71
2017-06-17T01:19:14.500Z,98.9
2017-06-17T01:19:26.925Z,98.9
2017-06-17T01:19:39.846Z,98.9
2017-06-17T01:19:53.290Z,98.71
2017-06-17T01:20:07.128Z,98.9
2017-06-17T01:20:19.535Z,98.61
2017-06-17T01:20:32.985Z,98.71
2017-06-17T01:20:46.366Z,98.61
2017-06-17T01:20:59.828Z,98.52
2017-06-17T01:21:12.773Z,98.61
2017-06-17T01:21:25.742Z,98.8
2017-06-17T01:21:39.238Z,98.8
2017-06-17T01:21:51.650Z,98.42
2017-06-17T01:22:05.087Z,98.42
2017-06-17T01:22:17.557Z,98.9
2017-06-17T01:22:30.531Z,98.71
2017-06-17T01:22:43.989Z,98.52
2017-06-17T01:22:56.977Z,98.61
2017-06-17T01:23:09.971Z,98.61
2017-06-17T01:23:22.919Z,98.66
2017-06-17T01:23:36.353Z,98.85
2017-06-17T01:23:49.302Z,98.13
2017-06-17T01:24:02.757Z,98.42
2017-06-17T01:24:16.263Z,98.18
2017-06-17T01:24:29.273Z,97.99
2017-06-17T01:24:42.760Z,97.99
2017-06-17T01:24:56.266Z,98.52
2017-06-17T01:25:09.859Z,98.13
2017-06-17T01:25:23.348Z,98.04
2017-06-17T01:25:36.838Z,98.23
2017-06-17T01:25:50.332Z,98.04
2017-06-17T01:26:03.285Z,98.23
2017-06-17T01:26:16.782Z,98.23
2017-06-17T01:26:30.190Z,98.08
2017-06-17T01:26:43.667Z,98.04
2017-06-17T01:26:57.144Z,97.66
2017-06-17T01:27:10.647Z,98.13
2017-06-17T01:27:23.603Z,97.89
2017-06-17T01:27:36.517Z,97.94
2017-06-17T01:27:49.995Z,97.94
2017-06-17T01:28:02.954Z,98.04
2017-06-17T01:28:16.473Z,97.75
2017-06-17T01:28:29.389Z,97.75
2017-06-17T01:28:42.856Z,98.13
2017-06-17T01:28:56.337Z,97.66
2017-06-17T01:29:09.800Z,97.52
2017-06-17T01:29:22.716Z,97.52
2017-06-17T01:29:35.649Z,97.8
2017-06-17T01:29:49.163Z,97.66
2017-06-17T01:30:02.182Z,97.85
2017-06-17T01:30:15.176Z,97.71
2017-06-17T01:30:28.654Z,97.37
2017-06-17T01:30:42.111Z,97.37
2017-06-17T01:30:55.516Z,97.75
2017-06-17T01:31:09.003Z,97.75
2017-06-17T01:31:22.513Z,97.56
2017-06-17T01:31:35.510Z,97.32
2017-06-17T01:31:49.034Z,97.75
2017-06-17T01:32:02.450Z,97.75
2017-06-17T01:32:15.866Z,97.28
2017-06-17T01:32:28.826Z,96.99
2017-06-17T01:32:42.316Z,97.18
2017-06-17T01:32:55.793Z,97.28
2017-06-17T01:33:09.308Z,97.18
2017-06-17T01:33:22.775Z,96.61
2017-06-17T01:33:35.741Z,96.8
2017-06-17T01:33:49.280Z,97.08
2017-06-17T01:34:02.237Z,97.08
2017-06-17T01:34:14.634Z,97.37
2017-06-17T01:34:28.056Z,97.18
2017-06-17T01:34:39.882Z,97.18
2017-06-17T01:34:53.316Z,97.28
2017-06-17T01:35:06.836Z,97.28
2017-06-17T01:35:20.928Z,97.18
2017-06-17T01:35:33.887Z,97.28
2017-06-17T01:35:46.278Z,97.28
2017-06-17T01:35:59.720Z,97.08
2017-06-17T01:36:12.708Z,97.28
2017-06-17T01:36:26.228Z,97.28
2017-06-17T01:36:39.679Z,97.28
2017-06-17T01:36:53.147Z,96.7
2017-06-17T01:37:06.675Z,96.61
2017-06-17T01:37:20.125Z,97.28
2017-06-17T01:37:33.580Z,97.18
2017-06-17T01:37:47.032Z,97.28
2017-06-17T01:38:00.449Z,97.18
2017-06-17T01:38:12.846Z,97.08
2017-06-17T01:38:25.756Z,97.28
2017-06-17T01:38:39.286Z,97.08
2017-06-17T01:38:52.831Z,97.08
2017-06-17T01:39:06.322Z,97.08
2017-06-17T01:39:19.752Z,97.18
2017-06-17T01:39:33.226Z,96.89
2017-06-17T01:39:46.158Z,96.99
2017-06-17T01:39:59.591Z,97.28
2017-06-17T01:40:13.382Z,97.37
2017-06-17T01:40:25.842Z,96.7
2017-06-17T01:40:39.280Z,97.37
2017-06-17T01:40:52.749Z,97.08
2017-06-17T01:41:05.663Z,96.99
2017-06-17T01:41:19.110Z,97.08
2017-06-17T01:41:32.786Z,97.08
2017-06-17T01:41:46.269Z,96.99
2017-06-17T01:41:59.667Z,97.08
2017-06-17T01:42:13.156Z,97.08
2017-06-17T01:42:26.064Z,97.08
2017-06-17T01:42:39.470Z,97.18
2017-06-17T01:42:52.355Z,97.08
2017-06-17T01:43:05.837Z,97.18
2017-06-17T01:43:19.267Z,96.89
2017-06-17T01:43:32.748Z,97.08
2017-06-17T01:43:46.193Z,96.99
2017-06-17T01:43:59.634Z,97.08
2017-06-17T01:44:12.090Z,96.89
2017-06-17T01:44:25.013Z,97.08
2017-06-17T01:44:37.965Z,97.08
2017-06-17T01:44:51.439Z,96.89
2017-06-17T01:45:04.863Z,96.89
2017-06-17T01:45:18.398Z,97.03
2017-06-17T01:45:31.879Z,97.28
2017-06-17T01:45:45.334Z,96.99
2017-06-17T01:45:58.290Z,97.37
2017-06-17T01:46:11.739Z,97.28
2017-06-17T01:46:25.200Z,96.89
2017-06-17T01:46:38.669Z,96.94
2017-06-17T01:46:52.067Z,96.89
2017-06-17T01:47:05.503Z,96.7
2017-06-17T01:47:18.967Z,96.56
2017-06-17T01:47:32.431Z,96.61
2017-06-17T01:47:45.423Z,96.94
2017-06-17T01:47:58.935Z,96.75
2017-06-17T01:48:11.893Z,96.46
2017-06-17T01:48:25.398Z,96.75
2017-06-17T01:48:38.868Z,96.61
2017-06-17T01:48:52.272Z,96.13
2017-06-17T01:49:05.715Z,95.7
2017-06-17T01:49:19.173Z,95.41
2017-06-17T01:49:32.616Z,95.56
2017-06-17T01:49:46.044Z,95.65
2017-06-17T01:49:59.043Z,95.51
2017-06-17T01:50:11.925Z,96.27
2017-06-17T01:50:25.269Z,96.27
2017-06-17T01:50:38.779Z,95.41
2017-06-17T01:50:52.257Z,95.61
2017-06-17T01:51:05.780Z,95.41
2017-06-17T01:51:19.293Z,95.32
2017-06-17T01:51:32.745Z,95.32
2017-06-17T01:51:46.197Z,95.7
2017-06-17T01:51:59.654Z,95.61
2017-06-17T01:52:13.158Z,95.79
2017-06-17T01:52:26.098Z,95.51
2017-06-17T01:52:39.590Z,95.51
2017-06-17T01:52:52.473Z,95.32
2017-06-17T01:53:05.992Z,95.7
2017-06-17T01:53:19.474Z,95.41
2017-06-17T01:53:32.925Z,95.41
2017-06-17T01:53:45.837Z,95.22
2017-06-17T01:53:59.269Z,95.12
2017-06-17T01:54:12.217Z,95.22
2017-06-17T01:54:25.193Z,95.41
2017-06-17T01:54:38.708Z,94.65
2017-06-17T01:54:52.128Z,94.93
2017-06-17T01:55:05.117Z,94.36
2017-06-17T01:55:18.054Z,94.55
2017-06-17T01:55:31.672Z,94.36
2017-06-17T01:55:45.165Z,94.36
2017-06-17T01:55:57.589Z,94.36
2017-06-17T01:56:11.067Z,94.27
2017-06-17T01:56:24.530Z,94.36
2017-06-17T01:56:37.994Z,94.27
2017-06-17T01:56:50.925Z,94.07
2017-06-17T01:57:03.888Z,93.98
2017-06-17T01:57:17.383Z,93.88
2017-06-17T01:57:30.843Z,93.98
2017-06-17T01:57:43.275Z,94.07
2017-06-17T01:57:56.837Z,93.41
2017-06-17T01:58:09.725Z,93.6
2017-06-17T01:58:22.592Z,94.27
2017-06-17T01:58:35.509Z,93.88
2017-06-17T01:58:48.924Z,93.6
2017-06-17T01:59:02.359Z,93.88
2017-06-17T01:59:14.753Z,93.88
2017-06-17T01:59:27.170Z,93.21
2017-06-17T01:59:40.646Z,93.7
2017-06-17T01:59:54.191Z,93.98
2017-06-17T02:00:07.618Z,93.5
2017-06-17T02:00:21.101Z,93.6
2017-06-17T02:00:34.715Z,93.6
2017-06-17T02:00:48.148Z,93.7
2017-06-17T02:01:01.583Z,93.7
2017-06-17T02:01:14.987Z,93.79
2017-06-17T02:01:28.457Z,93.6
2017-06-17T02:01:41.894Z,93.41
2017-06-17T02:01:55.326Z,93.5
2017-06-17T02:02:08.782Z,93.6
2017-06-17T02:02:22.258Z,93.6
2017-06-17T02:02:35.707Z,93.5
2017-06-17T02:02:49.203Z,93.5
2017-06-17T02:03:01.580Z,93.5
2017-06-17T02:03:14.013Z,93.7
2017-06-17T02:03:27.520Z,93.5
2017-06-17T02:03:40.967Z,93.5
2017-06-17T02:03:53.348Z,93.5
2017-06-17T02:04:05.720Z,93.5
2017-06-17T02:04:19.138Z,93.7
2017-06-17T02:04:32.625Z,93.7
2017-06-17T02:04:45.590Z,93.5
2017-06-17T02:04:59.152Z,93.41
2017-06-17T02:05:12.066Z,93.5
2017-06-17T02:05:25.988Z,93.6
2017-06-17T02:05:38.922Z,93.41
2017-06-17T02:05:52.361Z,93.7
2017-06-17T02:06:05.297Z,93.5
2017-06-17T02:06:18.756Z,93.5
2017-06-17T02:06:32.209Z,93.41
2017-06-17T02:06:45.740Z,93.5
2017-06-17T02:06:59.192Z,93.12
2017-06-17T02:07:12.096Z,93.12
2017-06-17T02:07:25.017Z,92.93
2017-06-17T02:07:37.899Z,93.02
2017-06-17T02:07:51.371Z,93.02
2017-06-17T02:08:04.834Z,93.02
2017-06-17T02:08:18.312Z,93.12
2017-06-17T02:08:31.794Z,93.02
2017-06-17T02:08:45.226Z,92.74
2017-06-17T02:08:58.741Z,93.12
2017-06-17T02:09:11.614Z,93.12
2017-06-17T02:09:24.573Z,92.93
2017-06-17T02:09:38.310Z,92.93
2017-06-17T02:09:51.801Z,93.12
2017-06-17T02:10:05.296Z,93.21
2017-06-17T02:10:18.771Z,93.02
2017-06-17T02:10:31.786Z,92.93
2017-06-17T02:10:45.251Z,92.93
2017-06-17T02:10:58.259Z,92.93
2017-06-17T02:11:11.234Z,93.02
2017-06-17T02:11:24.148Z,93.21
2017-06-17T02:11:37.627Z,92.83
2017-06-17T02:11:50.567Z,92.93
2017-06-17T02:12:03.493Z,92.93
2017-06-17T02:12:16.456Z,92.93
2017-06-17T02:12:29.950Z,93.02
2017-06-17T02:12:42.902Z,93.21
2017-06-17T02:12:56.344Z,93.02
2017-06-17T02:13:09.836Z,92.93
2017-06-17T02:13:23.391Z,93.21
2017-06-17T02:13:36.826Z,93.21
2017-06-17T02:13:50.319Z,93.02
2017-06-17T02:14:03.828Z,92.64
2017-06-17T02:14:17.219Z,92.45
2017-06-17T02:14:29.604Z,92.83
2017-06-17T02:14:42.534Z,92.83
2017-06-17T02:14:55.995Z,93.02
2017-06-17T02:15:08.929Z,92.55
2017-06-17T02:15:21.899Z,92.64
2017-06-17T02:15:34.972Z,92.93
2017-06-17T02:15:48.424Z,93.31
2017-06-17T02:16:01.857Z,93.41
2017-06-17T02:16:15.390Z,93.5
2017-06-17T02:16:28.334Z,93.21
2017-06-17T02:16:41.804Z,93.12
2017-06-17T02:16:55.315Z,93.12
2017-06-17T02:17:08.811Z,93.02
2017-06-17T02:17:22.278Z,92.83
2017-06-17T02:17:35.164Z,93.21
2017-06-17T02:17:48.091Z,93.02
2017-06-17T02:18:01.572Z,93.02
2017-06-17T02:18:15.047Z,93.12
2017-06-17T02:18:28.464Z,93.12
2017-06-17T02:18:41.958Z,93.12
2017-06-17T02:18:55.440Z,92.74
2017-06-17T02:19:08.946Z,93.12
2017-06-17T02:19:22.414Z,93.12
2017-06-17T02:19:35.880Z,93.02
2017-06-17T02:19:48.839Z,93.21
2017-06-17T02:20:02.280Z,93.31
2017-06-17T02:20:15.205Z,93.21
2017-06-17T02:20:28.673Z,93.31
2017-06-17T02:20:41.946Z,93.21
2017-06-17T02:20:55.481Z,93.31
2017-06-17T02:21:08.979Z,93.6
2017-06-17T02:21:22.466Z,93.5
2017-06-17T02:21:35.993Z,93.5
2017-06-17T02:21:48.424Z,93.41
2017-06-17T02:22:01.839Z,93.6
2017-06-17T02:22:15.344Z,93.7
2017-06-17T02:22:28.794Z,93.5
2017-06-17T02:22:42.224Z,93.41
2017-06-17T02:22:55.661Z,93.5
2017-06-17T02:23:09.222Z,93.7
2017-06-17T02:23:22.682Z,93.88
2017-06-17T02:23:36.184Z,93.7
2017-06-17T02:23:49.657Z,94.07
2017-06-17T02:24:02.600Z,93.7
2017-06-17T02:24:16.102Z,93.7
2017-06-17T02:24:29.588Z,94.07
2017-06-17T02:24:42.530Z,93.5
2017-06-17T02:24:55.500Z,94.07
2017-06-17T02:25:09.007Z,93.88
2017-06-17T02:25:22.455Z,93.88
2017-06-17T02:25:35.931Z,93.88
2017-06-17T02:25:48.874Z,93.88
2017-06-17T02:26:02.368Z,93.7
2017-06-17T02:26:15.844Z,93.7
2017-06-17T02:26:28.286Z,93.79
2017-06-17T02:26:41.762Z,93.6
2017-06-17T02:26:55.236Z,93.88
2017-06-17T02:27:08.151Z,93.79
2017-06-17T02:27:21.627Z,93.6
2017-06-17T02:27:35.070Z,93.7
2017-06-17T02:27:48.564Z,93.6
2017-06-17T02:28:01.508Z,93.31
2017-06-17T02:28:14.937Z,93.5
2017-06-17T02:28:28.379Z,93.5
2017-06-17T02:28:41.850Z,93.5
2017-06-17T02:28:55.333Z,94.07
2017-06-17T02:29:08.798Z,93.7
2017-06-17T02:29:22.267Z,93.31
2017-06-17T02:29:34.734Z,93.41
2017-06-17T02:29:48.154Z,93.88
2017-06-17T02:30:01.584Z,93.41
2017-06-17T02:30:14.004Z,93.98
2017-06-17T02:30:26.886Z,93.7
2017-06-17T02:30:40.341Z,93.31
2017-06-17T02:30:53.274Z,93.41
2017-06-17T02:31:06.790Z,93.88
2017-06-17T02:31:20.228Z,93.74
2017-06-17T02:31:33.133Z,93.55
2017-06-17T02:31:46.560Z,93.5
2017-06-17T02:31:59.995Z,93.46
2017-06-17T02:32:13.452Z,93.46
2017-06-17T02:32:26.971Z,93.7
2017-06-17T02:32:39.967Z,93.84
2017-06-17T02:32:52.876Z,93.7
2017-06-17T02:33:06.291Z,93.74
2017-06-17T02:33:19.791Z,93.5
2017-06-17T02:33:33.206Z,93.55
2017-06-17T02:33:46.797Z,93.79
2017-06-17T02:34:00.264Z,93.79
2017-06-17T02:34:13.167Z,93.5
2017-06-17T02:34:26.652Z,93.7
2017-06-17T02:34:39.581Z,93.7
2017-06-17T02:34:52.539Z,93.5
2017-06-17T02:35:05.502Z,93.5
2017-06-17T02:35:18.400Z,93.41
2017-06-17T02:35:31.380Z,93.5
2017-06-17T02:35:45.155Z,93.41
2017-06-17T02:35:58.603Z,93.7
2017-06-17T02:36:13.591Z,93.41
2017-06-17T02:36:27.132Z,93.6
2017-06-17T02:36:40.689Z,93.5
2017-06-17T02:36:54.090Z,93.79
2017-06-17T02:37:06.020Z,94.07
2017-06-17T02:37:19.532Z,93.88
2017-06-17T02:37:33.031Z,93.88
2017-06-17T02:37:46.484Z,93.7
2017-06-17T02:37:59.943Z,93.88
2017-06-17T02:38:12.896Z,93.7
2017-06-17T02:38:25.840Z,93.41
2017-06-17T02:38:39.273Z,93.5
2017-06-17T02:38:52.243Z,93.98
2017-06-17T02:39:05.740Z,93.7
2017-06-17T02:39:19.205Z,93.5
2017-06-17T02:39:32.649Z,93.98
2017-06-17T02:39:46.064Z,93.88
2017-06-17T02:39:59.038Z,93.7
2017-06-17T02:40:11.998Z,93.41
2017-06-17T02:40:25.412Z,93.7
2017-06-17T02:40:38.794Z,93.79
2017-06-17T02:40:51.771Z,93.88
2017-06-17T02:41:05.238Z,94.17
2017-06-17T02:41:18.189Z,93.98
2017-06-17T02:41:31.617Z,93.98
2017-06-17T02:41:45.061Z,93.79
2017-06-17T02:41:58.469Z,93.6
2017-06-17T02:42:11.951Z,94.17
2017-06-17T02:42:25.472Z,93.6
2017-06-17T02:42:39.009Z,94.07
2017-06-17T02:42:52.448Z,93.5
2017-06-17T02:43:05.923Z,93.88
2017-06-17T02:43:19.331Z,93.7
2017-06-17T02:43:32.233Z,93.7
2017-06-17T02:43:45.720Z,93.6
2017-06-17T02:43:58.665Z,93.79
2017-06-17T02:44:12.105Z,93.88
2017-06-17T02:44:25.630Z,93.6
2017-06-17T02:44:38.554Z,93.6
2017-06-17T02:44:51.977Z,93.5
2017-06-17T02:45:04.881Z,93.5
2017-06-17T02:45:18.361Z,94.17
2017-06-17T02:45:31.811Z,93.79
2017-06-17T02:45:45.307Z,93.88
2017-06-17T02:45:58.745Z,93.7
2017-06-17T02:46:12.270Z,93.7
2017-06-17T02:46:25.765Z,93.5
2017-06-17T02:46:39.208Z,93.7
2017-06-17T02:46:52.720Z,93.6
2017-06-17T02:47:05.643Z,93.88
2017-06-17T02:47:18.066Z,93.41
2017-06-17T02:47:31.547Z,93.41
2017-06-17T02:47:44.980Z,93.12
2017-06-17T02:47:58.512Z,93.6
2017-06-17T02:48:11.977Z,93.12
2017-06-17T02:48:24.986Z,92.79
2017-06-17T02:48:38.448Z,93.12
2017-06-17T02:48:51.917Z,93.12
2017-06-17T02:49:05.354Z,93.12
2017-06-17T02:49:18.856Z,93.02
2017-06-17T02:49:32.397Z,92.93
2017-06-17T02:49:45.822Z,92.83
2017-06-17T02:49:59.305Z,93.02
2017-06-17T02:50:12.287Z,93.12
2017-06-17T02:50:25.231Z,93.02
2017-06-17T02:50:38.221Z,93.21
2017-06-17T02:50:51.974Z,93.12
2017-06-17T02:51:04.903Z,93.12
2017-06-17T02:51:18.365Z,93.07
2017-06-17T02:51:31.816Z,93.02
2017-06-17T02:51:45.328Z,93.12
2017-06-17T02:51:58.824Z,93.02
2017-06-17T02:52:12.303Z,93.12
2017-06-17T02:52:25.271Z,93.07